Time,TemperatureF,DewpointF,PressureIn,WindDirection,WindDirectionDegrees,WindSpeedMPH,WindSpeedGustMPH,Humidity,HourlyPrecipIn,Conditions,Clouds,dailyrainin,SoftwareType,DateUTC
2013-01-29 00:00:00,51.4,45.5,30.33,West,270,0.0,1.0,80,0.00,,,0.02,meteohub,2013-01-29 05:00:00,
2013-01-29 00:01:00,51.4,45.5,30.33,West,270,0.0,1.0,80,0.00,,,0.02,meteohub,2013-01-29 05:01:00,
2013-01-29 00:03:00,51.3,45.3,30.33,SW,225,0.0,1.0,80,0.00,,,0.02,meteohub,2013-01-29 05:03:00,
2013-01-29 00:05:00,51.3,45.3,30.33,West,270,0.0,0.0,80,0.00,,,0.00,meteohub,2013-01-29 05:05:00,
2013-01-29 00:10:00,51.3,45.7,30.32,SW,225,0.0,0.0,81,0.00,,,0.00,meteohub,2013-01-29 05:10:00,
2013-01-29 00:15:00,51.3,46.0,30.32,South,180,0.0,0.0,82,0.00,,,0.00,meteohub,2013-01-29 05:15:00,
2013-01-29 00:21:00,51.1,45.9,30.32,West,270,0.0,0.0,82,0.00,,,0.00,meteohub,2013-01-29 05:21:00,
2013-01-29 00:26:00,51.1,45.9,30.32,West,270,0.0,0.0,82,0.00,,,0.00,meteohub,2013-01-29 05:26:00,
2013-01-29 00:31:00,51.1,46.0,30.32,West,270,0.0,0.0,83,0.00,,,0.00,meteohub,2013-01-29 05:31:00,
2013-01-29 00:36:00,51.1,46.0,30.33,NW,315,0.0,0.0,83,0.00,,,0.00,meteohub,2013-01-29 05:36:00,
2013-01-29 00:41:00,51.1,46.0,30.33,West,270,0.0,0.0,83,0.00,,,0.00,meteohub,2013-01-29 05:41:00,
2013-01-29 00:46:00,51.3,46.6,30.33,West,270,0.0,0.0,84,0.00,,,0.00,meteohub,2013-01-29 05:46:00,
2013-01-29 00:51:00,51.3,46.6,30.33,West,270,0.0,0.0,84,0.00,,,0.00,meteohub,2013-01-29 05:51:00,
2013-01-29 00:56:00,51.3,46.6,30.32,West,270,0.0,0.0,84,0.00,,,0.00,meteohub,2013-01-29 05:56:00,
2013-01-29 01:01:00,51.4,47.1,30.32,West,270,0.0,0.0,85,0.00,,,0.00,meteohub,2013-01-29 06:01:00,
2013-01-29 01:06:00,51.4,47.1,30.32,West,270,0.0,0.0,85,0.00,,,0.00,meteohub,2013-01-29 06:06:00,
2013-01-29 01:11:00,51.3,46.9,30.32,West,270,0.0,0.0,85,0.00,,,0.00,meteohub,2013-01-29 06:11:00,
2013-01-29 01:17:00,51.1,46.8,30.31,South,180,2.0,0.0,85,0.00,,,0.00,meteohub,2013-01-29 06:17:00,
2013-01-29 01:22:00,50.9,46.9,30.31,SW,225,0.0,2.0,86,0.00,,,0.00,meteohub,2013-01-29 06:22:00,
2013-01-29 01:27:00,50.7,46.8,30.31,West,270,0.0,2.0,86,0.00,,,0.00,meteohub,2013-01-29 06:27:00,
2013-01-29 01:32:00,50.7,46.8,30.31,South,180,0.0,2.0,86,0.00,,,0.00,meteohub,2013-01-29 06:32:00,
2013-01-29 01:37:00,50.5,46.6,30.31,West,270,0.0,0.0,86,0.00,,,0.00,meteohub,2013-01-29 06:37:00,
2013-01-29 01:42:00,50.4,46.4,30.31,South,180,0.0,0.0,86,0.00,,,0.00,meteohub,2013-01-29 06:42:00,
2013-01-29 01:47:00,50.4,46.6,30.31,West,270,0.0,0.0,87,0.00,,,0.00,meteohub,2013-01-29 06:47:00,
2013-01-29 01:52:00,50.2,46.4,30.31,South,180,0.0,0.0,87,0.00,,,0.00,meteohub,2013-01-29 06:52:00,
2013-01-29 01:58:00,50.2,46.4,30.30,South,180,0.0,0.0,87,0.00,,,0.00,meteohub,2013-01-29 06:58:00,
2013-01-29 02:03:00,50.2,46.4,30.31,SW,225,0.0,0.0,87,0.00,,,0.00,meteohub,2013-01-29 07:03:00,
2013-01-29 02:08:00,50.0,46.6,30.31,South,180,0.0,0.0,88,0.00,,,0.00,meteohub,2013-01-29 07:08:00,
2013-01-29 02:13:00,50.0,46.6,30.30,SW,225,0.0,3.0,88,0.00,,,0.00,meteohub,2013-01-29 07:13:00,
2013-01-29 02:18:00,49.8,46.8,30.30,West,270,0.0,3.0,89,0.00,,,0.00,meteohub,2013-01-29 07:18:00,
2013-01-29 02:23:00,49.6,46.6,30.30,SW,225,0.0,5.0,89,0.00,,,0.00,meteohub,2013-01-29 07:23:00,
2013-01-29 02:28:00,49.6,46.6,30.30,SW,225,0.0,5.0,89,0.00,,,0.00,meteohub,2013-01-29 07:28:00,
2013-01-29 02:33:00,49.6,46.6,30.30,SW,225,0.0,4.0,89,0.00,,,0.00,meteohub,2013-01-29 07:33:00,
2013-01-29 02:39:00,49.5,46.4,30.30,West,270,0.0,2.0,89,0.00,,,0.00,meteohub,2013-01-29 07:39:00,
2013-01-29 02:44:00,49.5,46.4,30.30,West,270,0.0,2.0,89,0.00,,,0.00,meteohub,2013-01-29 07:44:00,
2013-01-29 02:49:00,49.3,46.2,30.30,West,270,0.0,2.0,89,0.00,,,0.00,meteohub,2013-01-29 07:49:00,
2013-01-29 02:54:00,49.1,46.0,30.31,West,270,0.0,0.0,89,0.00,,,0.00,meteohub,2013-01-29 07:54:00,
2013-01-29 02:59:00,48.9,45.9,30.30,West,270,0.0,0.0,89,0.00,,,0.00,meteohub,2013-01-29 07:59:00,
2013-01-29 03:04:00,48.9,45.9,30.30,West,270,0.0,1.0,89,0.00,,,0.00,meteohub,2013-01-29 08:04:00,
2013-01-29 03:09:00,48.7,45.7,30.30,South,180,0.0,1.0,89,0.00,,,0.00,meteohub,2013-01-29 08:09:00,
2013-01-29 03:14:00,48.6,45.5,30.30,SW,225,0.0,1.0,89,0.00,,,0.00,meteohub,2013-01-29 08:14:00,
2013-01-29 03:19:00,48.6,45.7,30.30,SW,225,0.0,0.0,90,0.00,,,0.00,meteohub,2013-01-29 08:19:00,
2013-01-29 03:24:00,48.6,45.7,30.30,SW,225,0.0,0.0,90,0.00,,,0.00,meteohub,2013-01-29 08:24:00,
2013-01-29 03:29:00,48.6,45.7,30.30,South,180,0.0,0.0,90,0.00,,,0.00,meteohub,2013-01-29 08:29:00,
2013-01-29 03:34:00,48.6,45.7,30.30,SW,225,0.0,0.0,90,0.00,,,0.00,meteohub,2013-01-29 08:34:00,
2013-01-29 03:39:00,48.6,45.7,30.30,South,180,0.0,0.0,90,0.00,,,0.00,meteohub,2013-01-29 08:39:00,
2013-01-29 03:44:00,48.6,45.7,30.29,West,270,0.0,0.0,90,0.00,,,0.00,meteohub,2013-01-29 08:44:00,
2013-01-29 03:49:00,48.4,45.5,30.29,SW,225,0.0,0.0,90,0.00,,,0.00,meteohub,2013-01-29 08:49:00,
2013-01-29 03:54:00,48.4,45.5,30.30,SW,225,0.0,0.0,90,0.00,,,0.00,meteohub,2013-01-29 08:54:00,
2013-01-29 04:00:00,48.2,45.3,30.29,South,180,0.0,0.0,90,0.00,,,0.00,meteohub,2013-01-29 09:00:00,
2013-01-29 04:05:00,48.2,45.3,30.29,West,270,0.0,0.0,90,0.00,,,0.00,meteohub,2013-01-29 09:05:00,
2013-01-29 04:10:00,48.2,45.3,30.29,West,270,0.0,0.0,90,0.00,,,0.00,meteohub,2013-01-29 09:10:00,
2013-01-29 04:15:00,48.0,45.5,30.29,South,180,0.0,0.0,91,0.00,,,0.00,meteohub,2013-01-29 09:15:00,
2013-01-29 04:20:00,48.2,45.3,30.29,NW,315,1.0,0.0,90,0.00,,,0.00,meteohub,2013-01-29 09:20:00,
2013-01-29 04:25:00,48.2,45.7,30.29,West,270,0.0,2.0,91,0.00,,,0.00,meteohub,2013-01-29 09:25:00,
2013-01-29 04:30:00,48.2,45.7,30.29,SW,225,0.0,2.0,91,0.00,,,0.00,meteohub,2013-01-29 09:30:00,
2013-01-29 04:35:00,48.2,45.7,30.28,South,180,0.0,1.0,91,0.00,,,0.00,meteohub,2013-01-29 09:35:00,
2013-01-29 04:41:00,48.2,45.7,30.28,SW,225,0.0,0.0,91,0.00,,,0.00,meteohub,2013-01-29 09:41:00,
2013-01-29 04:46:00,48.2,45.7,30.28,SW,225,0.0,0.0,91,0.00,,,0.00,meteohub,2013-01-29 09:46:00,
2013-01-29 04:51:00,48.2,45.7,30.28,South,180,0.0,0.0,91,0.00,,,0.00,meteohub,2013-01-29 09:51:00,
2013-01-29 04:56:00,48.2,45.7,30.28,South,180,0.0,0.0,91,0.00,,,0.00,meteohub,2013-01-29 09:56:00,
2013-01-29 05:01:00,48.2,45.7,30.28,SW,225,1.0,1.0,91,0.00,,,0.00,meteohub,2013-01-29 10:01:00,
2013-01-29 05:06:00,48.2,45.7,30.28,SW,225,1.0,1.0,91,0.00,,,0.00,meteohub,2013-01-29 10:06:00,
2013-01-29 05:11:00,48.4,45.9,30.28,SW,225,0.0,1.0,91,0.00,,,0.00,meteohub,2013-01-29 10:11:00,
2013-01-29 05:16:00,48.2,45.7,30.29,South,180,0.0,1.0,91,0.00,,,0.00,meteohub,2013-01-29 10:16:00,
2013-01-29 05:22:00,48.2,45.7,30.29,West,270,2.0,2.0,91,0.00,,,0.00,meteohub,2013-01-29 10:22:00,
2013-01-29 05:27:00,48.2,45.7,30.29,West,270,0.0,2.0,91,0.00,,,0.00,meteohub,2013-01-29 10:27:00,
2013-01-29 05:32:00,48.0,45.9,30.29,SW,225,0.0,2.0,92,0.00,,,0.00,meteohub,2013-01-29 10:32:00,
2013-01-29 05:37:00,47.8,45.7,30.29,West,270,0.0,2.0,92,0.00,,,0.00,meteohub,2013-01-29 10:37:00,
2013-01-29 05:42:00,47.8,45.7,30.29,West,270,0.0,0.0,92,0.00,,,0.00,meteohub,2013-01-29 10:42:00,
2013-01-29 05:47:00,47.7,45.5,30.29,SW,225,0.0,0.0,92,0.00,,,0.00,meteohub,2013-01-29 10:47:00,
2013-01-29 05:52:00,47.7,45.5,30.30,SW,225,0.0,0.0,92,0.00,,,0.00,meteohub,2013-01-29 10:52:00,
2013-01-29 05:58:00,47.5,45.3,30.29,West,270,0.0,0.0,92,0.00,,,0.00,meteohub,2013-01-29 10:58:00,
2013-01-29 06:03:00,47.3,45.1,30.29,SW,225,0.0,0.0,92,0.00,,,0.00,meteohub,2013-01-29 11:03:00,
2013-01-29 06:08:00,47.3,45.3,30.30,SW,225,0.0,0.0,93,0.00,,,0.00,meteohub,2013-01-29 11:08:00,
2013-01-29 06:13:00,47.1,45.1,30.30,West,270,0.0,0.0,93,0.00,,,0.00,meteohub,2013-01-29 11:13:00,
2013-01-29 06:18:00,47.1,45.1,30.29,South,180,0.0,0.0,93,0.00,,,0.00,meteohub,2013-01-29 11:18:00,
2013-01-29 06:24:00,47.3,45.3,30.29,SW,225,0.0,0.0,93,0.00,,,0.00,meteohub,2013-01-29 11:24:00,
2013-01-29 06:29:00,47.3,45.7,30.30,South,180,0.0,3.0,94,0.00,,,0.00,meteohub,2013-01-29 11:29:00,
2013-01-29 06:34:00,47.3,45.7,30.30,South,180,0.0,3.0,94,0.00,,,0.00,meteohub,2013-01-29 11:34:00,
2013-01-29 06:39:00,47.3,45.7,30.29,South,180,0.0,3.0,94,0.00,,,0.00,meteohub,2013-01-29 11:39:00,
2013-01-29 06:44:00,47.3,45.7,30.30,SW,225,0.0,2.0,94,0.00,,,0.00,meteohub,2013-01-29 11:44:00,
2013-01-29 06:50:00,47.3,45.7,30.30,SW,225,0.0,2.0,94,0.00,,,0.00,meteohub,2013-01-29 11:50:00,
2013-01-29 06:55:00,47.1,45.7,30.30,SW,225,0.0,2.0,95,0.00,,,0.00,meteohub,2013-01-29 11:55:00,
2013-01-29 07:00:00,47.3,45.9,30.30,SSE,158,1.0,0.0,95,0.00,,,0.00,meteohub,2013-01-29 12:00:00,
2013-01-29 07:05:00,47.3,45.9,30.29,SSE,158,1.0,1.0,95,0.00,,,0.00,meteohub,2013-01-29 12:05:00,
2013-01-29 07:10:00,47.5,46.0,30.30,West,270,0.0,1.0,95,0.00,,,0.00,meteohub,2013-01-29 12:10:00,
2013-01-29 07:15:00,47.3,45.9,30.30,West,270,0.0,1.0,95,0.00,,,0.00,meteohub,2013-01-29 12:15:00,
2013-01-29 07:20:00,47.3,45.9,30.30,West,270,0.0,1.0,95,0.00,,,0.00,meteohub,2013-01-29 12:20:00,
2013-01-29 07:25:00,47.3,45.9,30.30,West,270,0.0,0.0,95,0.00,,,0.00,meteohub,2013-01-29 12:25:00,
2013-01-29 07:30:00,47.1,45.7,30.30,South,180,0.0,0.0,95,0.00,,,0.00,meteohub,2013-01-29 12:30:00,
2013-01-29 07:35:00,47.1,45.7,30.30,South,180,0.0,0.0,95,0.00,,,0.00,meteohub,2013-01-29 12:35:00,
2013-01-29 07:41:00,47.1,45.7,30.30,West,270,0.0,1.0,95,0.00,,,0.00,meteohub,2013-01-29 12:41:00,
2013-01-29 07:46:00,47.1,45.7,30.30,South,180,0.0,2.0,95,0.00,,,0.00,meteohub,2013-01-29 12:46:00,
2013-01-29 07:51:00,47.5,46.0,30.30,South,180,0.0,2.0,95,0.00,,,0.00,meteohub,2013-01-29 12:51:00,
2013-01-29 07:56:00,47.7,46.2,30.30,SW,225,0.0,2.0,95,0.00,,,0.00,meteohub,2013-01-29 12:56:00,
2013-01-29 08:01:00,47.7,46.2,30.31,SW,225,0.0,0.0,95,0.00,,,0.00,meteohub,2013-01-29 13:01:00,
2013-01-29 08:06:00,47.8,46.4,30.30,West,270,0.0,0.0,95,0.00,,,0.00,meteohub,2013-01-29 13:06:00,
2013-01-29 08:11:00,48.0,46.6,30.31,SW,225,0.0,0.0,95,0.00,,,0.00,meteohub,2013-01-29 13:11:00,
2013-01-29 08:16:00,48.2,46.6,30.30,West,270,0.0,0.0,94,0.00,,,0.00,meteohub,2013-01-29 13:16:00,
2013-01-29 08:21:00,48.4,46.8,30.31,SW,225,0.0,0.0,94,0.00,,,0.00,meteohub,2013-01-29 13:21:00,
2013-01-29 08:26:00,49.5,47.8,30.31,South,180,0.0,0.0,94,0.00,,,0.00,meteohub,2013-01-29 13:26:00,
2013-01-29 08:31:00,49.5,47.5,30.31,West,270,0.0,0.0,93,0.00,,,0.00,meteohub,2013-01-29 13:31:00,
2013-01-29 08:37:00,49.6,47.5,30.32,West,270,0.0,5.0,92,0.00,,,0.00,meteohub,2013-01-29 13:37:00,
2013-01-29 08:42:00,50.4,47.5,30.31,West,270,0.0,5.0,90,0.00,,,0.00,meteohub,2013-01-29 13:42:00,
2013-01-29 08:47:00,50.5,47.5,30.32,West,270,1.0,5.0,89,0.00,,,0.00,meteohub,2013-01-29 13:47:00,
2013-01-29 08:52:00,50.5,47.1,30.31,SW,225,0.0,2.0,88,0.00,,,0.00,meteohub,2013-01-29 13:52:00,
2013-01-29 08:57:00,51.3,47.5,30.31,West,270,3.0,3.0,87,0.00,,,0.00,meteohub,2013-01-29 13:57:00,
2013-01-29 09:02:00,51.6,47.5,30.31,SW,225,0.0,3.0,86,0.00,,,0.00,meteohub,2013-01-29 14:02:00,
2013-01-29 09:07:00,52.0,47.3,30.31,South,180,0.0,3.0,84,0.00,,,0.00,meteohub,2013-01-29 14:07:00,
2013-01-29 09:12:00,52.0,47.3,30.31,West,270,0.0,3.0,84,0.00,,,0.00,meteohub,2013-01-29 14:12:00,
2013-01-29 09:17:00,52.3,47.7,30.30,West,270,0.0,1.0,84,0.00,,,0.00,meteohub,2013-01-29 14:17:00,
2013-01-29 09:22:00,52.9,47.8,30.30,West,270,0.0,1.0,83,0.00,,,0.00,meteohub,2013-01-29 14:22:00,
2013-01-29 09:28:00,53.2,48.2,30.30,West,270,2.0,2.0,83,0.00,,,0.00,meteohub,2013-01-29 14:28:00,
2013-01-29 09:33:00,54.3,48.6,30.30,WSW,248,1.0,3.0,81,0.00,,,0.00,meteohub,2013-01-29 14:33:00,
2013-01-29 09:38:00,54.9,48.6,30.30,South,180,0.0,3.0,79,0.00,,,0.00,meteohub,2013-01-29 14:38:00,
2013-01-29 09:43:00,55.4,48.9,30.30,West,270,0.0,3.0,79,0.00,,,0.00,meteohub,2013-01-29 14:43:00,
2013-01-29 09:48:00,56.1,48.9,30.30,West,270,4.0,4.0,77,0.00,,,0.00,meteohub,2013-01-29 14:48:00,
2013-01-29 09:53:00,57.4,49.1,30.31,NW,315,1.0,4.0,74,0.00,,,0.00,meteohub,2013-01-29 14:53:00,
2013-01-29 09:59:00,58.5,50.2,30.31,NW,315,0.0,4.0,74,0.00,,,0.00,meteohub,2013-01-29 14:59:00,
2013-01-29 10:04:00,58.1,49.8,30.31,West,270,0.0,4.0,74,0.00,,,0.00,meteohub,2013-01-29 15:04:00,
2013-01-29 10:09:00,57.9,49.6,30.30,WSW,248,0.0,3.0,74,0.00,,,0.00,meteohub,2013-01-29 15:09:00,
2013-01-29 10:14:00,59.0,50.0,30.31,NW,315,0.0,3.0,72,0.00,,,0.00,meteohub,2013-01-29 15:14:00,
2013-01-29 10:19:00,59.7,50.7,30.31,NW,315,0.0,3.0,72,0.00,,,0.00,meteohub,2013-01-29 15:19:00,
2013-01-29 10:24:00,60.3,50.9,30.31,SW,225,0.0,3.0,71,0.00,,,0.00,meteohub,2013-01-29 15:24:00,
2013-01-29 10:29:00,60.6,50.7,30.30,NW,315,1.0,3.0,70,0.00,,,0.00,meteohub,2013-01-29 15:29:00,
2013-01-29 10:35:00,60.6,50.7,30.31,West,270,0.0,6.0,70,0.00,,,0.00,meteohub,2013-01-29 15:35:00,
2013-01-29 10:40:00,61.2,50.9,30.31,SW,225,2.0,6.0,69,0.00,,,0.00,meteohub,2013-01-29 15:40:00,
2013-01-29 10:45:00,61.3,50.7,30.31,South,180,3.0,4.0,68,0.00,,,0.00,meteohub,2013-01-29 15:45:00,
2013-01-29 10:50:00,62.1,51.4,30.31,West,270,1.0,4.0,68,0.00,,,0.00,meteohub,2013-01-29 15:50:00,
2013-01-29 10:56:00,62.1,50.9,30.31,West,270,4.0,4.0,67,0.00,,,0.00,meteohub,2013-01-29 15:56:00,
2013-01-29 11:01:00,62.4,51.8,30.30,West,270,0.0,4.0,68,0.00,,,0.00,meteohub,2013-01-29 16:01:00,
2013-01-29 11:06:00,63.5,52.3,30.30,West,270,0.0,4.0,67,0.00,,,0.00,meteohub,2013-01-29 16:06:00,
2013-01-29 11:11:00,64.6,52.9,30.30,NW,315,4.0,4.0,66,0.00,,,0.00,meteohub,2013-01-29 16:11:00,
2013-01-29 11:16:00,65.3,53.2,30.30,SW,225,1.0,4.0,65,0.00,,,0.00,meteohub,2013-01-29 16:16:00,
2013-01-29 11:21:00,65.3,53.2,30.30,West,270,2.0,4.0,65,0.00,,,0.00,meteohub,2013-01-29 16:21:00,
2013-01-29 11:26:00,64.8,53.1,30.29,West,270,0.0,4.0,66,0.00,,,0.00,meteohub,2013-01-29 16:26:00,
2013-01-29 11:31:00,65.3,54.1,30.29,West,270,0.0,4.0,67,0.00,,,0.00,meteohub,2013-01-29 16:31:00,
2013-01-29 11:37:00,65.5,53.8,30.29,West,270,0.0,5.0,66,0.00,,,0.00,meteohub,2013-01-29 16:37:00,
2013-01-29 11:42:00,65.8,54.1,30.29,NW,315,4.0,5.0,66,0.00,,,0.00,meteohub,2013-01-29 16:42:00,
2013-01-29 11:47:00,65.8,54.1,30.28,West,270,3.0,6.0,66,0.00,,,0.00,meteohub,2013-01-29 16:47:00,
2013-01-29 11:52:00,66.0,54.3,30.28,South,180,2.0,6.0,66,0.00,,,0.00,meteohub,2013-01-29 16:52:00,
2013-01-29 11:57:00,66.6,54.5,30.28,West,270,6.0,6.0,65,0.00,,,0.00,meteohub,2013-01-29 16:57:00,
2013-01-29 12:02:00,66.7,54.7,30.27,West,270,4.0,6.0,65,0.00,,,0.00,meteohub,2013-01-29 17:02:00,
2013-01-29 12:07:00,67.3,55.0,30.27,West,270,3.0,6.0,65,0.00,,,0.00,meteohub,2013-01-29 17:07:00,
2013-01-29 12:12:00,67.3,54.7,30.26,South,180,0.0,6.0,64,0.00,,,0.00,meteohub,2013-01-29 17:12:00,
2013-01-29 12:18:00,68.0,55.4,30.26,South,180,0.0,4.0,64,0.00,,,0.00,meteohub,2013-01-29 17:18:00,
2013-01-29 12:23:00,68.7,55.6,30.25,South,180,0.0,3.0,63,0.00,,,0.00,meteohub,2013-01-29 17:23:00,
2013-01-29 12:28:00,69.6,56.5,30.25,West,270,7.0,7.0,63,0.00,,,0.00,meteohub,2013-01-29 17:28:00,
2013-01-29 12:33:00,70.0,56.3,30.25,NW,315,0.0,7.0,62,0.00,,,0.00,meteohub,2013-01-29 17:33:00,
2013-01-29 12:38:00,70.3,55.8,30.24,West,270,4.0,7.0,60,0.00,,,0.00,meteohub,2013-01-29 17:38:00,
2013-01-29 12:43:00,70.3,55.8,30.24,West,270,2.0,7.0,60,0.00,,,0.00,meteohub,2013-01-29 17:43:00,
2013-01-29 12:48:00,71.1,55.9,30.24,West,270,3.0,6.0,59,0.00,,,0.00,meteohub,2013-01-29 17:48:00,
2013-01-29 12:53:00,71.2,55.8,30.24,West,270,5.0,6.0,58,0.00,,,0.00,meteohub,2013-01-29 17:53:00,
2013-01-29 12:58:00,70.9,55.8,30.23,West,270,0.0,6.0,59,0.00,,,0.00,meteohub,2013-01-29 17:58:00,
2013-01-29 13:04:00,70.9,55.8,30.24,West,270,1.0,6.0,59,0.00,,,0.00,meteohub,2013-01-29 18:04:00,
2013-01-29 13:09:00,71.1,55.9,30.23,NW,315,2.0,6.0,59,0.00,,,0.00,meteohub,2013-01-29 18:09:00,
2013-01-29 13:14:00,71.1,55.6,30.23,West,270,2.0,6.0,58,0.00,,,0.00,meteohub,2013-01-29 18:14:00,
2013-01-29 13:19:00,71.1,55.6,30.22,West,270,2.0,5.0,58,0.00,,,0.00,meteohub,2013-01-29 18:19:00,
2013-01-29 13:24:00,70.9,55.8,30.22,SW,225,0.0,5.0,59,0.00,,,0.00,meteohub,2013-01-29 18:24:00,
2013-01-29 13:29:00,71.1,55.9,30.22,West,270,0.0,5.0,59,0.00,,,0.00,meteohub,2013-01-29 18:29:00,
2013-01-29 13:34:00,71.2,56.1,30.22,West,270,0.0,4.0,59,0.00,,,0.00,meteohub,2013-01-29 18:34:00,
2013-01-29 13:39:00,71.6,55.6,30.22,West,270,0.0,3.0,57,0.00,,,0.00,meteohub,2013-01-29 18:39:00,
2013-01-29 13:44:00,72.0,55.9,30.22,West,270,2.0,2.0,57,0.00,,,0.00,meteohub,2013-01-29 18:44:00,
2013-01-29 13:50:00,72.9,56.3,30.21,West,270,0.0,2.0,56,0.00,,,0.00,meteohub,2013-01-29 18:50:00,
2013-01-29 13:55:00,73.4,56.3,30.21,West,270,0.0,2.0,55,0.00,,,0.00,meteohub,2013-01-29 18:55:00,
2013-01-29 14:00:00,73.4,56.3,30.22,NW,315,3.0,3.0,55,0.00,,,0.00,meteohub,2013-01-29 19:00:00,
2013-01-29 14:05:00,73.2,55.6,30.22,West,270,0.0,3.0,54,0.00,,,0.00,meteohub,2013-01-29 19:05:00,
2013-01-29 14:10:00,73.2,55.6,30.22,SW,225,1.0,5.0,54,0.00,,,0.00,meteohub,2013-01-29 19:10:00,
2013-01-29 14:15:00,73.4,56.3,30.21,NW,315,1.0,5.0,55,0.00,,,0.00,meteohub,2013-01-29 19:15:00,
2013-01-29 14:20:00,73.2,55.6,30.21,SW,225,0.0,5.0,54,0.00,,,0.00,meteohub,2013-01-29 19:20:00,
2013-01-29 14:25:00,73.0,55.9,30.21,NW,315,1.0,3.0,55,0.00,,,0.00,meteohub,2013-01-29 19:25:00,
2013-01-29 14:30:00,73.6,55.9,30.21,West,270,0.0,4.0,54,0.00,,,0.00,meteohub,2013-01-29 19:30:00,
2013-01-29 14:36:00,74.3,55.6,30.21,SE,135,6.0,7.0,52,0.00,,,0.00,meteohub,2013-01-29 19:36:00,
2013-01-29 14:41:00,75.0,55.6,30.20,West,270,0.0,7.0,51,0.00,,,0.00,meteohub,2013-01-29 19:41:00,
2013-01-29 14:46:00,75.4,55.4,30.20,South,180,5.0,7.0,50,0.00,,,0.00,meteohub,2013-01-29 19:46:00,
2013-01-29 14:51:00,75.6,55.0,30.20,South,180,3.0,6.0,49,0.00,,,0.00,meteohub,2013-01-29 19:51:00,
2013-01-29 14:56:00,75.9,55.4,30.20,South,180,0.0,5.0,49,0.00,,,0.00,meteohub,2013-01-29 19:56:00,
2013-01-29 14:57:00,76.1,55.0,30.20,South,180,0.0,5.0,48,0.00,,,0.00,meteohub,2013-01-29 19:57:00,
2013-01-29 15:02:00,76.1,55.0,30.20,North,0,0.0,5.0,48,0.00,,,0.00,meteohub,2013-01-29 20:02:00,
2013-01-29 15:08:00,75.6,54.5,30.20,SW,225,3.0,5.0,48,0.00,,,0.00,meteohub,2013-01-29 20:08:00,
2013-01-29 15:13:00,75.4,54.3,30.20,West,270,2.0,4.0,48,0.00,,,0.00,meteohub,2013-01-29 20:13:00,
2013-01-29 15:18:00,75.6,54.5,30.20,West,270,5.0,5.0,48,0.00,,,0.00,meteohub,2013-01-29 20:18:00,
2013-01-29 15:23:00,75.6,55.0,30.20,NW,315,4.0,4.0,49,0.00,,,0.00,meteohub,2013-01-29 20:23:00,
2013-01-29 15:29:00,75.9,54.9,30.20,NW,315,0.0,5.0,48,0.00,,,0.00,meteohub,2013-01-29 20:29:00,
2013-01-29 15:34:00,76.1,55.6,30.20,South,180,0.0,5.0,49,0.00,,,0.00,meteohub,2013-01-29 20:34:00,
2013-01-29 15:39:00,75.4,54.3,30.20,NW,315,0.0,4.0,48,0.00,,,0.00,meteohub,2013-01-29 20:39:00,
2013-01-29 15:44:00,74.7,55.4,30.20,West,270,2.0,4.0,51,0.00,,,0.00,meteohub,2013-01-29 20:44:00,
2013-01-29 15:49:00,73.9,55.2,30.20,WNW,293,1.0,4.0,52,0.00,,,0.00,meteohub,2013-01-29 20:49:00,
2013-01-29 15:54:00,73.4,55.2,30.20,South,180,4.0,4.0,53,0.00,,,0.00,meteohub,2013-01-29 20:54:00,
2013-01-29 15:59:00,73.0,54.9,30.20,South,180,3.0,4.0,53,0.00,,,0.00,meteohub,2013-01-29 20:59:00,
2013-01-29 16:04:00,72.9,54.7,30.20,SW,225,5.0,5.0,53,0.00,,,0.00,meteohub,2013-01-29 21:04:00,
2013-01-29 16:09:00,72.5,54.3,30.20,SW,225,4.0,4.0,53,0.00,,,0.00,meteohub,2013-01-29 21:09:00,
2013-01-29 16:15:00,72.3,54.7,30.20,West,270,0.0,6.0,54,0.00,,,0.00,meteohub,2013-01-29 21:15:00,
2013-01-29 16:20:00,72.5,54.9,30.21,SW,225,5.0,6.0,54,0.00,,,0.00,meteohub,2013-01-29 21:20:00,
2013-01-29 16:25:00,72.7,54.5,30.20,West,270,6.0,6.0,53,0.00,,,0.00,meteohub,2013-01-29 21:25:00,
2013-01-29 16:30:00,72.5,54.3,30.20,West,270,4.0,6.0,53,0.00,,,0.00,meteohub,2013-01-29 21:30:00,
2013-01-29 16:35:00,72.7,54.5,30.20,South,180,3.0,6.0,53,0.00,,,0.00,meteohub,2013-01-29 21:35:00,
2013-01-29 16:40:00,72.5,54.3,30.20,West,270,0.0,6.0,53,0.00,,,0.00,meteohub,2013-01-29 21:40:00,
2013-01-29 16:45:00,72.3,54.1,30.20,West,270,1.0,3.0,53,0.00,,,0.00,meteohub,2013-01-29 21:45:00,
2013-01-29 16:50:00,71.8,53.8,30.20,NW,315,4.0,4.0,53,0.00,,,0.00,meteohub,2013-01-29 21:50:00,
2013-01-29 16:56:00,71.6,54.1,30.20,SW,225,0.0,4.0,54,0.00,,,0.00,meteohub,2013-01-29 21:56:00,
2013-01-29 17:01:00,71.4,54.5,30.19,West,270,0.0,4.0,55,0.00,,,0.00,meteohub,2013-01-29 22:01:00,
2013-01-29 17:06:00,71.1,54.1,30.20,SW,225,0.0,4.0,55,0.00,,,0.00,meteohub,2013-01-29 22:06:00,
2013-01-29 17:11:00,70.9,54.3,30.20,West,270,0.0,3.0,56,0.00,,,0.00,meteohub,2013-01-29 22:11:00,
2013-01-29 17:16:00,70.3,54.0,30.20,West,270,0.0,1.0,56,0.00,,,0.00,meteohub,2013-01-29 22:16:00,
2013-01-29 17:21:00,70.2,54.1,30.20,West,270,0.0,0.0,57,0.00,,,0.00,meteohub,2013-01-29 22:21:00,
2013-01-29 17:27:00,69.8,54.3,30.20,West,270,0.0,0.0,58,0.00,,,0.00,meteohub,2013-01-29 22:27:00,
2013-01-29 17:32:00,69.3,54.3,30.20,West,270,0.0,0.0,59,0.00,,,0.00,meteohub,2013-01-29 22:32:00,
2013-01-29 17:37:00,68.9,54.5,30.20,West,270,0.0,0.0,60,0.00,,,0.00,meteohub,2013-01-29 22:37:00,
2013-01-29 17:42:00,68.2,54.1,30.19,West,270,0.0,0.0,61,0.00,,,0.00,meteohub,2013-01-29 22:42:00,
2013-01-29 17:47:00,67.5,54.5,30.19,West,270,0.0,0.0,63,0.00,,,0.00,meteohub,2013-01-29 22:47:00,
2013-01-29 17:52:00,66.6,54.0,30.19,West,270,0.0,0.0,64,0.00,,,0.00,meteohub,2013-01-29 22:52:00,
2013-01-29 17:57:00,65.7,53.6,30.19,West,270,0.0,0.0,65,0.00,,,0.00,meteohub,2013-01-29 22:57:00,
2013-01-29 18:02:00,65.1,53.4,30.19,West,270,0.0,0.0,66,0.00,,,0.00,meteohub,2013-01-29 23:02:00,
2013-01-29 18:08:00,64.0,52.9,30.19,West,270,0.0,0.0,67,0.00,,,0.00,meteohub,2013-01-29 23:08:00,
2013-01-29 18:13:00,63.3,52.5,30.19,West,270,0.0,0.0,68,0.00,,,0.00,meteohub,2013-01-29 23:13:00,
2013-01-29 18:18:00,62.6,52.7,30.19,West,270,0.0,0.0,70,0.00,,,0.00,meteohub,2013-01-29 23:18:00,
2013-01-29 18:23:00,62.1,52.9,30.19,West,270,0.0,0.0,72,0.00,,,0.00,meteohub,2013-01-29 23:23:00,
2013-01-29 18:28:00,61.7,52.5,30.19,West,270,0.0,0.0,72,0.00,,,0.00,meteohub,2013-01-29 23:28:00,
2013-01-29 18:33:00,61.2,52.0,30.19,West,270,0.0,0.0,72,0.00,,,0.00,meteohub,2013-01-29 23:33:00,
2013-01-29 18:38:00,60.8,52.2,30.19,West,270,0.0,0.0,73,0.00,,,0.00,meteohub,2013-01-29 23:38:00,
2013-01-29 18:43:00,60.6,52.7,30.19,West,270,0.0,0.0,75,0.00,,,0.00,meteohub,2013-01-29 23:43:00,
2013-01-29 18:48:00,60.3,52.3,30.19,West,270,0.0,0.0,75,0.00,,,0.00,meteohub,2013-01-29 23:48:00,
2013-01-29 18:54:00,59.9,52.3,30.19,West,270,0.0,0.0,76,0.00,,,0.00,meteohub,2013-01-29 23:54:00,
2013-01-29 18:59:00,59.7,52.2,30.19,West,270,0.0,0.0,76,0.00,,,0.00,meteohub,2013-01-29 23:59:00,
2013-01-29 19:04:00,59.4,52.2,30.19,West,270,0.0,0.0,77,0.00,,,0.00,meteohub,2013-01-30 00:04:00,
2013-01-29 19:09:00,59.2,52.0,30.19,West,270,0.0,0.0,77,0.00,,,0.00,meteohub,2013-01-30 00:09:00,
2013-01-29 19:14:00,59.0,52.2,30.19,West,270,0.0,0.0,78,0.00,,,0.00,meteohub,2013-01-30 00:14:00,
2013-01-29 19:19:00,59.0,52.9,30.19,South,180,0.0,0.0,80,0.00,,,0.00,meteohub,2013-01-30 00:19:00,
2013-01-29 19:24:00,58.8,53.1,30.20,NW,315,0.0,0.0,81,0.00,,,0.00,meteohub,2013-01-30 00:24:00,
2013-01-29 19:29:00,59.0,52.9,30.19,East,90,0.0,0.0,80,0.00,,,0.00,meteohub,2013-01-30 00:29:00,
2013-01-29 19:35:00,59.5,54.0,30.19,South,180,0.0,0.0,82,0.00,,,0.00,meteohub,2013-01-30 00:35:00,
2013-01-29 19:40:00,60.8,54.7,30.19,SW,225,0.0,0.0,80,0.00,,,0.00,meteohub,2013-01-30 00:40:00,
2013-01-29 19:45:00,61.5,54.7,30.19,South,180,0.0,0.0,78,0.00,,,0.00,meteohub,2013-01-30 00:45:00,
2013-01-29 19:50:00,62.6,54.5,30.19,South,180,0.0,0.0,75,0.00,,,0.00,meteohub,2013-01-30 00:50:00,
2013-01-29 19:55:00,63.7,55.2,30.19,South,180,0.0,0.0,74,0.00,,,0.00,meteohub,2013-01-30 00:55:00,
2013-01-29 20:00:00,64.0,54.9,30.19,SSE,158,0.0,0.0,72,0.00,,,0.00,meteohub,2013-01-30 01:00:00,
2013-01-29 20:05:00,64.4,54.9,30.19,South,180,1.0,3.0,71,0.00,,,0.00,meteohub,2013-01-30 01:05:00,
2013-01-29 20:11:00,64.8,55.2,30.19,South,180,0.0,3.0,71,0.00,,,0.00,meteohub,2013-01-30 01:11:00,
2013-01-29 20:16:00,65.1,55.4,30.19,South,180,0.0,3.0,71,0.00,,,0.00,meteohub,2013-01-30 01:16:00,
2013-01-29 20:21:00,65.1,55.4,30.19,South,180,0.0,5.0,71,0.00,,,0.00,meteohub,2013-01-30 01:21:00,
2013-01-29 20:26:00,65.5,55.4,30.19,South,180,3.0,5.0,70,0.00,,,0.00,meteohub,2013-01-30 01:26:00,
2013-01-29 20:31:00,65.7,55.6,30.19,South,180,3.0,4.0,70,0.00,,,0.00,meteohub,2013-01-30 01:31:00,
2013-01-29 20:36:00,65.8,55.8,30.19,South,180,0.0,4.0,70,0.00,,,0.00,meteohub,2013-01-30 01:36:00,
2013-01-29 20:41:00,65.7,55.9,30.20,South,180,3.0,4.0,71,0.00,,,0.00,meteohub,2013-01-30 01:41:00,
2013-01-29 20:47:00,65.8,56.1,30.20,South,180,3.0,4.0,71,0.00,,,0.00,meteohub,2013-01-30 01:47:00,
2013-01-29 20:52:00,65.8,56.1,30.19,South,180,4.0,5.0,71,0.00,,,0.00,meteohub,2013-01-30 01:52:00,
2013-01-29 20:57:00,65.7,55.9,30.19,South,180,0.0,7.0,71,0.00,,,0.00,meteohub,2013-01-30 01:57:00,
2013-01-29 21:02:00,65.5,56.3,30.19,South,180,3.0,7.0,72,0.00,,,0.00,meteohub,2013-01-30 02:02:00,
2013-01-29 21:07:00,65.5,56.3,30.19,South,180,0.0,4.0,72,0.00,,,0.00,meteohub,2013-01-30 02:07:00,
2013-01-29 21:12:00,65.3,56.5,30.19,South,180,7.0,7.0,73,0.00,,,0.00,meteohub,2013-01-30 02:12:00,
2013-01-29 21:17:00,65.5,56.7,30.19,South,180,0.0,4.0,73,0.00,,,0.00,meteohub,2013-01-30 02:17:00,
2013-01-29 21:22:00,65.5,56.7,30.19,South,180,0.0,7.0,73,0.00,,,0.00,meteohub,2013-01-30 02:22:00,
2013-01-29 21:28:00,65.3,56.5,30.19,South,180,3.0,7.0,73,0.00,,,0.00,meteohub,2013-01-30 02:28:00,
2013-01-29 21:33:00,65.3,56.5,30.19,South,180,0.0,4.0,73,0.00,,,0.00,meteohub,2013-01-30 02:33:00,
2013-01-29 21:38:00,65.1,56.7,30.19,South,180,1.0,3.0,74,0.00,,,0.00,meteohub,2013-01-30 02:38:00,
2013-01-29 21:43:00,65.1,56.7,30.19,South,180,0.0,3.0,74,0.00,,,0.00,meteohub,2013-01-30 02:43:00,
2013-01-29 21:48:00,64.9,56.5,30.19,South,180,0.0,2.0,74,0.00,,,0.00,meteohub,2013-01-30 02:48:00,
2013-01-29 21:53:00,64.9,56.8,30.19,South,180,0.0,3.0,75,0.00,,,0.00,meteohub,2013-01-30 02:53:00,
2013-01-29 21:58:00,64.8,56.7,30.19,South,180,0.0,3.0,75,0.00,,,0.00,meteohub,2013-01-30 02:58:00,
2013-01-29 22:03:00,64.6,56.5,30.19,South,180,0.0,3.0,75,0.00,,,0.00,meteohub,2013-01-30 03:03:00,
2013-01-29 22:08:00,64.2,56.1,30.19,South,180,3.0,3.0,75,0.00,,,0.00,meteohub,2013-01-30 03:08:00,
2013-01-29 22:13:00,64.2,56.5,30.19,South,180,3.0,3.0,76,0.00,,,0.00,meteohub,2013-01-30 03:13:00,
2013-01-29 22:18:00,64.2,56.5,30.19,South,180,2.0,3.0,76,0.00,,,0.00,meteohub,2013-01-30 03:18:00,
2013-01-29 22:23:00,64.4,56.7,30.19,SW,225,0.0,3.0,76,0.00,,,0.00,meteohub,2013-01-30 03:23:00,
2013-01-29 22:29:00,64.2,56.5,30.19,SE,135,2.0,3.0,76,0.00,,,0.00,meteohub,2013-01-30 03:29:00,
2013-01-29 22:34:00,64.2,56.5,30.19,South,180,4.0,4.0,76,0.00,,,0.00,meteohub,2013-01-30 03:34:00,
2013-01-29 22:39:00,64.4,56.7,30.19,South,180,2.0,3.0,76,0.00,,,0.00,meteohub,2013-01-30 03:39:00,
2013-01-29 22:44:00,64.2,56.5,30.19,South,180,0.0,4.0,76,0.00,,,0.00,meteohub,2013-01-30 03:44:00,
2013-01-29 22:49:00,64.0,56.7,30.20,SW,225,0.0,4.0,77,0.00,,,0.00,meteohub,2013-01-30 03:49:00,
2013-01-29 22:54:00,63.7,56.3,30.21,South,180,0.0,4.0,77,0.00,,,0.00,meteohub,2013-01-30 03:54:00,
2013-01-29 22:59:00,63.7,56.7,30.21,South,180,0.0,0.0,78,0.00,,,0.00,meteohub,2013-01-30 03:59:00,
2013-01-29 23:04:00,63.5,56.5,30.21,South,180,0.0,0.0,78,0.00,,,0.00,meteohub,2013-01-30 04:04:00,
2013-01-29 23:09:00,63.5,56.8,30.21,South,180,0.0,0.0,79,0.00,,,0.00,meteohub,2013-01-30 04:09:00,
2013-01-29 23:15:00,63.7,57.0,30.20,South,180,0.0,5.0,79,0.00,,,0.00,meteohub,2013-01-30 04:15:00,
2013-01-29 23:20:00,63.5,56.8,30.19,South,180,0.0,5.0,79,0.00,,,0.00,meteohub,2013-01-30 04:20:00,
2013-01-29 23:25:00,63.5,57.2,30.19,South,180,0.0,5.0,80,0.00,,,0.00,meteohub,2013-01-30 04:25:00,
2013-01-29 23:30:00,63.3,57.0,30.19,South,180,0.0,0.0,80,0.00,,,0.00,meteohub,2013-01-30 04:30:00,
2013-01-29 23:35:00,63.3,57.0,30.19,South,180,0.0,0.0,80,0.00,,,0.00,meteohub,2013-01-30 04:35:00,
2013-01-29 23:40:00,63.0,56.7,30.18,South,180,4.0,0.0,80,0.00,,,0.00,meteohub,2013-01-30 04:40:00,
2013-01-29 23:45:00,63.0,57.0,30.18,SW,225,0.0,4.0,81,0.00,,,0.00,meteohub,2013-01-30 04:45:00,
2013-01-29 23:50:00,62.8,56.8,30.18,South,180,0.0,4.0,81,0.00,,,0.00,meteohub,2013-01-30 04:50:00,
2013-01-29 23:55:00,62.6,56.7,30.18,South,180,0.0,4.0,81,0.00,,,0.00,meteohub,2013-01-30 04:55:00,